ETH850 FNBJ-HAAB
Flight info
| Callsign | ETH850 |
|---|---|
| Flight time | N/A |
| Altitude | 35000 |
| Route | VNA UM216 IXETA/N0482F370 UM216 OVPAP UY288 NABRO UL432 EKBUL EKBUL1B |
| Aircraft | B77L/H-SDE1E2E3FGHIJ2J3J4J5M1RWXY/LB1D1 |
Departure
| Time | 2026-04-16 05:14 |
|---|---|
| Airport | Dr. Antonio Agostinho Neto International Airport (FNBJ) |
Arrival
| Time | N/A |
|---|---|
| Airport | Addis Ababa Bole International Airport (HAAB) |
| Time | Latitude | Longitude | Altitude | Speed | Heading |
|---|---|---|---|---|---|
| 2026-04-16 04:38 | -9.05191 | 13.49589 | 580 ft | 0 kts | 143° |
| 2026-04-16 05:00 | -9.05182 | 13.49582 | 582 ft | 4 kts | 143° |
| 2026-04-16 05:00 | -9.05160 | 13.49566 | 580 ft | 4 kts | 146° |
| 2026-04-16 05:00 | -9.05137 | 13.49554 | 580 ft | 4 kts | 173° |
| 2026-04-16 05:00 | -9.05116 | 13.49558 | 580 ft | 2 kts | 233° |
| 2026-04-16 05:01 | -9.05103 | 13.49576 | 582 ft | 4 kts | 233° |
| 2026-04-16 05:01 | -9.05096 | 13.49587 | 580 ft | 0 kts | 233° |
| 2026-04-16 05:04 | -9.05116 | 13.49558 | 580 ft | 6 kts | 233° |
| 2026-04-16 05:04 | -9.05150 | 13.49512 | 585 ft | 10 kts | 233° |
| 2026-04-16 05:04 | -9.05201 | 13.49449 | 583 ft | 13 kts | 231° |
| 2026-04-16 05:04 | -9.05262 | 13.49372 | 584 ft | 14 kts | 231° |
| 2026-04-16 05:05 | -9.05325 | 13.49294 | 584 ft | 14 kts | 231° |
| 2026-04-16 05:05 | -9.05385 | 13.49213 | 581 ft | 14 kts | 234° |
| 2026-04-16 05:05 | -9.05466 | 13.49222 | 584 ft | 13 kts | 141° |
| 2026-04-16 05:05 | -9.05539 | 13.49278 | 584 ft | 13 kts | 142° |
| 2026-04-16 05:06 | -9.05613 | 13.49336 | 583 ft | 13 kts | 143° |
| 2026-04-16 05:06 | -9.05688 | 13.49393 | 580 ft | 13 kts | 143° |
| 2026-04-16 05:06 | -9.05762 | 13.49450 | 580 ft | 13 kts | 144° |
| 2026-04-16 05:06 | -9.05838 | 13.49505 | 580 ft | 13 kts | 144° |
| 2026-04-16 05:07 | -9.05913 | 13.49561 | 580 ft | 13 kts | 144° |
| 2026-04-16 05:07 | -9.05989 | 13.49617 | 583 ft | 13 kts | 144° |
| 2026-04-16 05:07 | -9.06065 | 13.49672 | 580 ft | 13 kts | 144° |
| 2026-04-16 05:07 | -9.06140 | 13.49728 | 580 ft | 13 kts | 144° |
| 2026-04-16 05:08 | -9.06213 | 13.49785 | 581 ft | 13 kts | 141° |
| 2026-04-16 05:08 | -9.06271 | 13.49779 | 584 ft | 9 kts | 231° |
| 2026-04-16 05:08 | -9.06310 | 13.49727 | 583 ft | 9 kts | 233° |
| 2026-04-16 05:08 | -9.06348 | 13.49674 | 581 ft | 9 kts | 233° |
| 2026-04-16 05:09 | -9.06386 | 13.49621 | 580 ft | 9 kts | 234° |
| 2026-04-16 05:09 | -9.06425 | 13.49568 | 583 ft | 9 kts | 234° |
| 2026-04-16 05:09 | -9.06464 | 13.49513 | 580 ft | 10 kts | 234° |
| 2026-04-16 05:09 | -9.06507 | 13.49454 | 583 ft | 11 kts | 234° |
| 2026-04-16 05:10 | -9.06553 | 13.49392 | 582 ft | 11 kts | 233° |
| 2026-04-16 05:10 | -9.06603 | 13.49324 | 582 ft | 15 kts | 233° |
| 2026-04-16 05:10 | -9.06684 | 13.49215 | 582 ft | 21 kts | 233° |
| 2026-04-16 05:10 | -9.06773 | 13.49095 | 585 ft | 21 kts | 233° |
| 2026-04-16 05:11 | -9.06863 | 13.48975 | 580 ft | 21 kts | 232° |
| 2026-04-16 05:11 | -9.06925 | 13.48909 | 585 ft | 9 kts | 198° |
| 2026-04-16 05:11 | -9.06962 | 13.48921 | 579 ft | 0 kts | 146° |
| 2026-04-16 05:11 | -9.06963 | 13.48923 | 579 ft | 0 kts | 144° |
| 2026-04-16 05:12 | -9.06964 | 13.48923 | 579 ft | 0 kts | 143° |
| 2026-04-16 05:12 | -9.06986 | 13.48941 | 579 ft | 9 kts | 145° |
| 2026-04-16 05:13 | -9.07042 | 13.48980 | 584 ft | 10 kts | 145° |
| 2026-04-16 05:13 | -9.07046 | 13.49023 | 580 ft | 6 kts | 60° |
| 2026-04-16 05:13 | -9.07022 | 13.49063 | 583 ft | 8 kts | 57° |
| 2026-04-16 05:13 | -9.06935 | 13.49184 | 580 ft | 36 kts | 53° |
| 2026-04-16 05:14 | -9.06664 | 13.49547 | 583 ft | 99 kts | 52° |
| 2026-04-16 05:14 | -9.06116 | 13.50284 | 583 ft | 160 kts | 53° |
| 2026-04-16 05:14 | -9.05363 | 13.51294 | 792 ft | 187 kts | 53° |
| 2026-04-16 05:14 | -9.04584 | 13.52327 | 1468 ft | 181 kts | 50° |
| 2026-04-16 05:15 | -9.03759 | 13.53293 | 2133 ft | 185 kts | 51° |
| 2026-04-16 05:15 | -9.02935 | 13.54349 | 2584 ft | 199 kts | 53° |
| 2026-04-16 05:15 | -9.02059 | 13.55535 | 2888 ft | 223 kts | 54° |
| 2026-04-16 05:15 | -9.01164 | 13.56900 | 3269 ft | 244 kts | 58° |
| 2026-04-16 05:16 | -9.00268 | 13.58372 | 4092 ft | 240 kts | 60° |
| 2026-04-16 05:16 | -8.99359 | 13.59786 | 4870 ft | 247 kts | 55° |
| 2026-04-16 05:16 | -8.98308 | 13.61226 | 5416 ft | 259 kts | 53° |
| 2026-04-16 05:16 | -8.97212 | 13.62704 | 6151 ft | 265 kts | 53° |
| 2026-04-16 05:17 | -8.96098 | 13.64199 | 6923 ft | 268 kts | 53° |
| 2026-04-16 05:17 | -8.94965 | 13.65714 | 7646 ft | 272 kts | 53° |
| 2026-04-16 05:17 | -8.93815 | 13.67247 | 8084 ft | 274 kts | 53° |
| 2026-04-16 05:17 | -8.92666 | 13.68779 | 8797 ft | 276 kts | 53° |
| 2026-04-16 05:18 | -8.91497 | 13.70333 | 9500 ft | 279 kts | 53° |
| 2026-04-16 05:18 | -8.90310 | 13.71907 | 10168 ft | 285 kts | 53° |
| 2026-04-16 05:18 | -8.89070 | 13.73555 | 10471 ft | 307 kts | 53° |
| 2026-04-16 05:18 | -8.87729 | 13.75347 | 10657 ft | 332 kts | 53° |
| 2026-04-16 05:19 | -8.86302 | 13.77256 | 10872 ft | 357 kts | 53° |
| 2026-04-16 05:19 | -8.84761 | 13.79320 | 11164 ft | 377 kts | 53° |
| 2026-04-16 05:19 | -8.83166 | 13.81464 | 11791 ft | 387 kts | 53° |
| 2026-04-16 05:19 | -8.81533 | 13.83662 | 12578 ft | 393 kts | 53° |
| 2026-04-16 05:20 | -8.79880 | 13.85889 | 13411 ft | 397 kts | 53° |
| 2026-04-16 05:20 | -8.78211 | 13.88136 | 14208 ft | 402 kts | 53° |
| 2026-04-16 05:20 | -8.76520 | 13.90410 | 14956 ft | 407 kts | 53° |
| 2026-04-16 05:20 | -8.74804 | 13.92713 | 15684 ft | 412 kts | 53° |
| 2026-04-16 05:21 | -8.73066 | 13.95039 | 16383 ft | 417 kts | 53° |
| 2026-04-16 05:21 | -8.71302 | 13.97390 | 17044 ft | 422 kts | 54° |
| 2026-04-16 05:21 | -8.69580 | 13.99821 | 17708 ft | 426 kts | 57° |
| 2026-04-16 05:21 | -8.67931 | 14.02331 | 18337 ft | 431 kts | 58° |
| 2026-04-16 05:22 | -8.66295 | 14.04880 | 19012 ft | 434 kts | 58° |
| 2026-04-16 05:22 | -8.64645 | 14.07448 | 19651 ft | 437 kts | 58° |
| 2026-04-16 05:22 | -8.62973 | 14.10026 | 20257 ft | 441 kts | 57° |
| 2026-04-16 05:22 | -8.61277 | 14.12621 | 20822 ft | 445 kts | 57° |
| 2026-04-16 05:23 | -8.59551 | 14.15242 | 21399 ft | 448 kts | 57° |
| 2026-04-16 05:23 | -8.57814 | 14.17870 | 21958 ft | 451 kts | 56° |
| 2026-04-16 05:23 | -8.56061 | 14.20513 | 22466 ft | 454 kts | 56° |
| 2026-04-16 05:23 | -8.54318 | 14.23140 | 22974 ft | 458 kts | 56° |
| 2026-04-16 05:24 | -8.52536 | 14.25825 | 23472 ft | 461 kts | 56° |
| 2026-04-16 05:24 | -8.50745 | 14.28522 | 23944 ft | 464 kts | 56° |
| 2026-04-16 05:24 | -8.48941 | 14.31238 | 24410 ft | 467 kts | 56° |
| 2026-04-16 05:24 | -8.47124 | 14.33974 | 24833 ft | 470 kts | 56° |
| 2026-04-16 05:25 | -8.45298 | 14.36726 | 25226 ft | 474 kts | 56° |
| 2026-04-16 05:25 | -8.43451 | 14.39507 | 25614 ft | 477 kts | 56° |
| 2026-04-16 05:25 | -8.41597 | 14.42295 | 26029 ft | 480 kts | 56° |
| 2026-04-16 05:25 | -8.39726 | 14.45109 | 26437 ft | 483 kts | 56° |
| 2026-04-16 05:26 | -8.37845 | 14.47936 | 26797 ft | 486 kts | 56° |
| 2026-04-16 05:26 | -8.35983 | 14.50740 | 27150 ft | 489 kts | 56° |
| 2026-04-16 05:26 | -8.34080 | 14.53607 | 27513 ft | 492 kts | 56° |
| 2026-04-16 05:26 | -8.32169 | 14.56482 | 27868 ft | 494 kts | 56° |
| 2026-04-16 05:27 | -8.30250 | 14.59369 | 28206 ft | 497 kts | 56° |
| 2026-04-16 05:27 | -8.28316 | 14.62274 | 28524 ft | 499 kts | 56° |
| 2026-04-16 05:27 | -8.26372 | 14.65195 | 28825 ft | 502 kts | 56° |
| 2026-04-16 05:27 | -8.24422 | 14.68123 | 29127 ft | 504 kts | 56° |
| 2026-04-16 05:28 | -8.22461 | 14.71070 | 29430 ft | 506 kts | 56° |
| 2026-04-16 05:28 | -8.20496 | 14.74022 | 29775 ft | 507 kts | 56° |
| 2026-04-16 05:28 | -8.18533 | 14.76971 | 30205 ft | 505 kts | 56° |
| 2026-04-16 05:28 | -8.16569 | 14.79920 | 30682 ft | 503 kts | 56° |
| 2026-04-16 05:29 | -8.14622 | 14.82843 | 31178 ft | 501 kts | 56° |
| 2026-04-16 05:29 | -8.12684 | 14.85752 | 31635 ft | 499 kts | 56° |
| 2026-04-16 05:29 | -8.10772 | 14.88620 | 32072 ft | 498 kts | 56° |
| 2026-04-16 05:29 | -8.08841 | 14.91515 | 32541 ft | 496 kts | 56° |
| 2026-04-16 05:30 | -8.06922 | 14.94396 | 32997 ft | 494 kts | 56° |
| 2026-04-16 05:30 | -8.05009 | 14.97267 | 33455 ft | 492 kts | 56° |
| 2026-04-16 05:30 | -8.03101 | 15.00129 | 33882 ft | 491 kts | 56° |
| 2026-04-16 05:30 | -8.01194 | 15.02987 | 34326 ft | 489 kts | 56° |
| 2026-04-16 05:31 | -7.99351 | 15.05868 | 34731 ft | 488 kts | 59° |
| 2026-04-16 05:31 | -7.97761 | 15.08894 | 34883 ft | 486 kts | 64° |
| 2026-04-16 05:31 | -7.96307 | 15.11960 | 34885 ft | 482 kts | 64° |
| 2026-04-16 05:32 | -7.93462 | 15.18075 | 34885 ft | 485 kts | 64° |
| 2026-04-16 05:32 | -7.90563 | 15.24241 | 34893 ft | 487 kts | 64° |
| 2026-04-16 05:33 | -7.87622 | 15.30422 | 34894 ft | 489 kts | 64° |
| 2026-04-16 05:33 | -7.84670 | 15.36601 | 34907 ft | 489 kts | 64° |
| 2026-04-16 05:34 | -7.81713 | 15.42796 | 34906 ft | 489 kts | 64° |
| 2026-04-16 05:34 | -7.78759 | 15.48981 | 34904 ft | 488 kts | 64° |
| 2026-04-16 05:35 | -7.75816 | 15.55139 | 34896 ft | 487 kts | 64° |
| 2026-04-16 05:35 | -7.72881 | 15.61283 | 34897 ft | 485 kts | 64° |
| 2026-04-16 05:36 | -7.69954 | 15.67406 | 34905 ft | 484 kts | 64° |
| 2026-04-16 05:36 | -7.67047 | 15.73481 | 34908 ft | 484 kts | 64° |
| 2026-04-16 05:37 | -7.64121 | 15.79595 | 34906 ft | 484 kts | 64° |
| 2026-04-16 05:37 | -7.61666 | 15.84721 | 34874 ft | 485 kts | 64° |
| 2026-04-16 05:38 | -7.58750 | 15.90804 | 34875 ft | 485 kts | 64° |
| 2026-04-16 05:38 | -7.55807 | 15.96940 | 34871 ft | 486 kts | 64° |
| 2026-04-16 05:39 | -7.52863 | 16.03079 | 34876 ft | 486 kts | 64° |
| 2026-04-16 05:39 | -7.49919 | 16.09218 | 34880 ft | 486 kts | 64° |
| 2026-04-16 05:40 | -7.46967 | 16.15369 | 34878 ft | 486 kts | 64° |
| 2026-04-16 05:40 | -7.44039 | 16.21466 | 34880 ft | 486 kts | 64° |
| 2026-04-16 05:41 | -7.41097 | 16.27594 | 34889 ft | 486 kts | 64° |
| 2026-04-16 05:41 | -7.38152 | 16.33724 | 34890 ft | 486 kts | 64° |
| 2026-04-16 05:42 | -7.35207 | 16.39852 | 34890 ft | 486 kts | 64° |
| 2026-04-16 05:42 | -7.32256 | 16.45986 | 34888 ft | 486 kts | 64° |
| 2026-04-16 05:43 | -7.29312 | 16.52107 | 34889 ft | 485 kts | 64° |
| 2026-04-16 05:43 | -7.26372 | 16.58212 | 34887 ft | 484 kts | 64° |
| 2026-04-16 05:44 | -7.23435 | 16.64311 | 34890 ft | 484 kts | 64° |
| 2026-04-16 05:44 | -7.20520 | 16.70365 | 34889 ft | 483 kts | 63° |
| 2026-04-16 05:45 | -7.17593 | 16.76440 | 34887 ft | 482 kts | 63° |
| 2026-04-16 05:45 | -7.14664 | 16.82514 | 34888 ft | 482 kts | 63° |
| 2026-04-16 05:46 | -7.11730 | 16.88600 | 34894 ft | 482 kts | 63° |
| 2026-04-16 05:46 | -7.08818 | 16.94640 | 34900 ft | 482 kts | 63° |
| 2026-04-16 05:47 | -7.05886 | 17.00720 | 34900 ft | 483 kts | 64° |
| 2026-04-16 05:47 | -7.02981 | 17.06813 | 34896 ft | 483 kts | 64° |
| 2026-04-16 05:48 | -7.00077 | 17.12914 | 34897 ft | 483 kts | 64° |
| 2026-04-16 05:48 | -6.97192 | 17.18968 | 34901 ft | 482 kts | 64° |
| 2026-04-16 05:49 | -6.94287 | 17.25058 | 34898 ft | 482 kts | 64° |
| 2026-04-16 05:49 | -6.91381 | 17.31144 | 34898 ft | 482 kts | 63° |
| 2026-04-16 05:50 | -6.88473 | 17.37230 | 34899 ft | 482 kts | 63° |
| 2026-04-16 05:50 | -6.85563 | 17.43322 | 34898 ft | 482 kts | 63° |
| 2026-04-16 05:51 | -6.82661 | 17.49395 | 34897 ft | 481 kts | 63° |
| 2026-04-16 05:51 | -6.79775 | 17.55435 | 34899 ft | 481 kts | 63° |
| 2026-04-16 05:52 | -6.76877 | 17.61505 | 34898 ft | 481 kts | 63° |
| 2026-04-16 05:52 | -6.73985 | 17.67574 | 34899 ft | 481 kts | 63° |
| 2026-04-16 05:53 | -6.71066 | 17.73635 | 34898 ft | 481 kts | 63° |
| 2026-04-16 05:53 | -6.68139 | 17.79685 | 34899 ft | 480 kts | 63° |
| 2026-04-16 05:54 | -6.65219 | 17.85729 | 34894 ft | 480 kts | 63° |
| 2026-04-16 05:54 | -6.62304 | 17.91765 | 34899 ft | 479 kts | 63° |
| 2026-04-16 05:55 | -6.59409 | 17.97761 | 34898 ft | 479 kts | 63° |
| 2026-04-16 05:55 | -6.56495 | 18.03796 | 34899 ft | 479 kts | 63° |
| 2026-04-16 05:56 | -6.53578 | 18.09826 | 34907 ft | 479 kts | 63° |
| 2026-04-16 05:56 | -6.50660 | 18.15861 | 34908 ft | 480 kts | 63° |
| 2026-04-16 05:57 | -6.47738 | 18.21905 | 34906 ft | 480 kts | 63° |
| 2026-04-16 05:57 | -6.44812 | 18.27952 | 34909 ft | 481 kts | 63° |
| 2026-04-16 05:58 | -6.41878 | 18.33991 | 34908 ft | 481 kts | 63° |
| 2026-04-16 05:58 | -6.38918 | 18.40020 | 34908 ft | 481 kts | 63° |
| 2026-04-16 05:59 | -6.35957 | 18.46056 | 34907 ft | 481 kts | 63° |
| 2026-04-16 05:59 | -6.33034 | 18.52071 | 34967 ft | 485 kts | 63° |
| 2026-04-16 05:59 | -6.31564 | 18.55130 | 35246 ft | 485 kts | 63° |
| 2026-04-16 06:00 | -6.30099 | 18.58181 | 35638 ft | 484 kts | 63° |
| 2026-04-16 06:00 | -6.28641 | 18.61219 | 36072 ft | 481 kts | 63° |
| 2026-04-16 06:00 | -6.27190 | 18.64242 | 36443 ft | 479 kts | 63° |
| 2026-04-16 06:00 | -6.25737 | 18.67261 | 36735 ft | 479 kts | 63° |
| 2026-04-16 06:01 | -6.24283 | 18.70283 | 36850 ft | 481 kts | 63° |
| 2026-04-16 06:01 | -6.21378 | 18.76313 | 36911 ft | 476 kts | 63° |
| 2026-04-16 06:02 | -6.17099 | 18.85192 | 36929 ft | 468 kts | 63° |
| 2026-04-16 06:02 | -6.14256 | 18.91086 | 36916 ft | 469 kts | 63° |
| 2026-04-16 06:03 | -6.11429 | 18.96953 | 36913 ft | 470 kts | 63° |
| 2026-04-16 06:03 | -6.08564 | 19.02889 | 36930 ft | 472 kts | 63° |
| 2026-04-16 06:04 | -6.05692 | 19.08839 | 36906 ft | 473 kts | 63° |
| 2026-04-16 06:04 | -6.02815 | 19.14797 | 36911 ft | 475 kts | 63° |
| 2026-04-16 06:05 | -5.99930 | 19.20769 | 36928 ft | 476 kts | 63° |
| 2026-04-16 06:05 | -5.97036 | 19.26763 | 36915 ft | 477 kts | 63° |
| 2026-04-16 06:06 | -5.94153 | 19.32729 | 36911 ft | 477 kts | 63° |
| 2026-04-16 06:06 | -5.91247 | 19.38741 | 36921 ft | 478 kts | 63° |
| 2026-04-16 06:07 | -5.88339 | 19.44755 | 36906 ft | 479 kts | 63° |
| 2026-04-16 06:07 | -5.85427 | 19.50779 | 36911 ft | 479 kts | 63° |
| 2026-04-16 06:08 | -5.82532 | 19.56759 | 36917 ft | 478 kts | 63° |
| 2026-04-16 06:08 | -5.79620 | 19.62769 | 36907 ft | 478 kts | 63° |
| 2026-04-16 06:09 | -5.76708 | 19.68779 | 36922 ft | 478 kts | 63° |
| 2026-04-16 06:09 | -5.73803 | 19.74778 | 36907 ft | 477 kts | 63° |
| 2026-04-16 06:10 | -5.70894 | 19.80779 | 36927 ft | 477 kts | 63° |
| 2026-04-16 06:10 | -5.67991 | 19.86771 | 36928 ft | 477 kts | 63° |
| 2026-04-16 06:11 | -5.65106 | 19.92721 | 36927 ft | 477 kts | 63° |
| 2026-04-16 06:11 | -5.62199 | 19.98713 | 36927 ft | 477 kts | 63° |
| 2026-04-16 06:12 | -5.59296 | 20.04694 | 36930 ft | 477 kts | 63° |
| 2026-04-16 06:12 | -5.56389 | 20.10683 | 36923 ft | 477 kts | 63° |
| 2026-04-16 06:13 | -5.53481 | 20.16675 | 36930 ft | 477 kts | 63° |
| 2026-04-16 06:13 | -5.50574 | 20.22662 | 36931 ft | 477 kts | 63° |
| 2026-04-16 06:14 | -5.47662 | 20.28657 | 36922 ft | 477 kts | 63° |
| 2026-04-16 06:14 | -5.44770 | 20.34612 | 36913 ft | 478 kts | 63° |
| 2026-04-16 06:15 | -5.41860 | 20.40600 | 36931 ft | 477 kts | 63° |
| 2026-04-16 06:15 | -5.38941 | 20.46586 | 36931 ft | 477 kts | 63° |
| 2026-04-16 06:16 | -5.36018 | 20.52571 | 36935 ft | 477 kts | 63° |
| 2026-04-16 06:16 | -5.33099 | 20.58546 | 36937 ft | 477 kts | 63° |
| 2026-04-16 06:17 | -5.30177 | 20.64527 | 36933 ft | 477 kts | 63° |
| 2026-04-16 06:17 | -5.27259 | 20.70509 | 36936 ft | 477 kts | 63° |
| 2026-04-16 06:18 | -5.24336 | 20.76489 | 36935 ft | 477 kts | 63° |
| 2026-04-16 06:18 | -5.21432 | 20.82432 | 36935 ft | 477 kts | 63° |
| 2026-04-16 06:19 | -5.18509 | 20.88414 | 36931 ft | 477 kts | 63° |
| 2026-04-16 06:19 | -5.15584 | 20.94394 | 36935 ft | 477 kts | 63° |
| 2026-04-16 06:20 | -5.12663 | 21.00367 | 36935 ft | 477 kts | 63° |
| 2026-04-16 06:20 | -5.09738 | 21.06348 | 36942 ft | 477 kts | 63° |
| 2026-04-16 06:21 | -5.06828 | 21.12294 | 36947 ft | 477 kts | 63° |
| 2026-04-16 06:21 | -5.03903 | 21.18266 | 36945 ft | 478 kts | 63° |
| 2026-04-16 06:22 | -5.00974 | 21.24249 | 36944 ft | 477 kts | 63° |
| 2026-04-16 06:22 | -4.98046 | 21.30228 | 36945 ft | 477 kts | 63° |
| 2026-04-16 06:23 | -4.95119 | 21.36202 | 36946 ft | 477 kts | 63° |
| 2026-04-16 06:23 | -4.92188 | 21.42184 | 36943 ft | 477 kts | 63° |
| 2026-04-16 06:24 | -4.89262 | 21.48154 | 36941 ft | 477 kts | 63° |
| 2026-04-16 06:24 | -4.86334 | 21.54127 | 36936 ft | 478 kts | 63° |
| 2026-04-16 06:25 | -4.83897 | 21.59097 | 36935 ft | 478 kts | 63° |
| 2026-04-16 06:25 | -4.80490 | 21.66042 | 36933 ft | 477 kts | 63° |
| 2026-04-16 06:26 | -4.78052 | 21.71012 | 36935 ft | 477 kts | 63° |
| 2026-04-16 06:26 | -4.75124 | 21.76983 | 36936 ft | 477 kts | 63° |
| 2026-04-16 06:27 | -4.72197 | 21.82955 | 36936 ft | 477 kts | 63° |
| 2026-04-16 06:27 | -4.69264 | 21.88937 | 36935 ft | 477 kts | 63° |
| 2026-04-16 06:28 | -4.66336 | 21.94912 | 36945 ft | 477 kts | 63° |
| 2026-04-16 06:28 | -4.63400 | 22.00893 | 36944 ft | 477 kts | 63° |
| 2026-04-16 06:29 | -4.60466 | 22.06867 | 36945 ft | 478 kts | 63° |
| 2026-04-16 06:29 | -4.57535 | 22.12841 | 36947 ft | 478 kts | 63° |
| 2026-04-16 06:30 | -4.54605 | 22.18816 | 36943 ft | 477 kts | 63° |
| 2026-04-16 06:30 | -4.51672 | 22.24787 | 36944 ft | 477 kts | 63° |
| 2026-04-16 06:31 | -4.48757 | 22.30719 | 36944 ft | 477 kts | 63° |
| 2026-04-16 06:31 | -4.45825 | 22.36686 | 36943 ft | 477 kts | 63° |
| 2026-04-16 06:32 | -4.42896 | 22.42649 | 36945 ft | 477 kts | 63° |
| 2026-04-16 06:32 | -4.39968 | 22.48609 | 36944 ft | 477 kts | 63° |
| 2026-04-16 06:33 | -4.37030 | 22.54583 | 36960 ft | 477 kts | 63° |
| 2026-04-16 06:33 | -4.34116 | 22.60507 | 36963 ft | 477 kts | 63° |
| 2026-04-16 06:34 | -4.31181 | 22.66474 | 36963 ft | 477 kts | 63° |
| 2026-04-16 06:34 | -4.28244 | 22.72444 | 36966 ft | 477 kts | 63° |
| 2026-04-16 06:35 | -4.25308 | 22.78410 | 36959 ft | 477 kts | 63° |
| 2026-04-16 06:35 | -4.22375 | 22.84372 | 36964 ft | 477 kts | 63° |
| 2026-04-16 06:36 | -4.19436 | 22.90336 | 36971 ft | 476 kts | 63° |
| 2026-04-16 06:36 | -4.16525 | 22.96253 | 36985 ft | 476 kts | 63° |
| 2026-04-16 06:37 | -4.13596 | 23.02199 | 36983 ft | 476 kts | 63° |
| 2026-04-16 06:37 | -4.10667 | 23.08144 | 36982 ft | 476 kts | 63° |
| 2026-04-16 06:38 | -4.07736 | 23.14092 | 36981 ft | 476 kts | 63° |
| 2026-04-16 06:38 | -4.04805 | 23.20041 | 36984 ft | 475 kts | 64° |
| 2026-04-16 06:39 | -4.02211 | 23.26125 | 36987 ft | 475 kts | 68° |
| 2026-04-16 06:39 | -3.99792 | 23.32233 | 36982 ft | 475 kts | 68° |
| 2026-04-16 06:40 | -3.97351 | 23.38379 | 36984 ft | 474 kts | 68° |
| 2026-04-16 06:40 | -3.94895 | 23.44511 | 36985 ft | 474 kts | 68° |
| 2026-04-16 06:41 | -3.92437 | 23.50633 | 36990 ft | 473 kts | 68° |
| 2026-04-16 06:41 | -3.89979 | 23.56752 | 36990 ft | 473 kts | 68° |
| 2026-04-16 06:42 | -3.87522 | 23.62869 | 36988 ft | 473 kts | 68° |
| 2026-04-16 06:42 | -3.85082 | 23.68943 | 36993 ft | 473 kts | 68° |
| 2026-04-16 06:43 | -3.82628 | 23.75043 | 36991 ft | 473 kts | 68° |
| 2026-04-16 06:43 | -3.80170 | 23.81154 | 36991 ft | 472 kts | 68° |
| 2026-04-16 06:44 | -3.77718 | 23.87256 | 36992 ft | 472 kts | 68° |
| 2026-04-16 06:44 | -3.75265 | 23.93354 | 36992 ft | 472 kts | 68° |
| 2026-04-16 06:45 | -3.72808 | 23.99464 | 36994 ft | 473 kts | 68° |
| 2026-04-16 06:45 | -3.70343 | 24.05592 | 36989 ft | 474 kts | 68° |
| 2026-04-16 06:46 | -3.67880 | 24.11714 | 36992 ft | 474 kts | 68° |
| 2026-04-16 06:46 | -3.65414 | 24.17841 | 36990 ft | 474 kts | 68° |
| 2026-04-16 06:47 | -3.62964 | 24.23926 | 36997 ft | 474 kts | 68° |
| 2026-04-16 06:47 | -3.60419 | 24.30028 | 37001 ft | 474 kts | 66° |
| 2026-04-16 06:48 | -3.57791 | 24.36100 | 37001 ft | 475 kts | 66° |
| 2026-04-16 06:48 | -3.55164 | 24.42178 | 37000 ft | 475 kts | 66° |
| 2026-04-16 06:49 | -3.52551 | 24.48259 | 37000 ft | 475 kts | 66° |
| 2026-04-16 06:49 | -3.49955 | 24.54315 | 37001 ft | 476 kts | 66° |
| 2026-04-16 06:50 | -3.47346 | 24.60405 | 36999 ft | 476 kts | 66° |
| 2026-04-16 06:50 | -3.44731 | 24.66498 | 36998 ft | 476 kts | 66° |
| 2026-04-16 06:51 | -3.42122 | 24.72588 | 36997 ft | 476 kts | 66° |
| 2026-04-16 06:51 | -3.39507 | 24.78692 | 36922 ft | 478 kts | 67° |
| 2026-04-16 06:52 | -3.36878 | 24.84814 | 36891 ft | 479 kts | 67° |
| 2026-04-16 06:52 | -3.34244 | 24.90949 | 36890 ft | 479 kts | 67° |
| 2026-04-16 06:53 | -3.31627 | 24.97044 | 36890 ft | 479 kts | 67° |
| 2026-04-16 06:53 | -3.28998 | 25.03167 | 36896 ft | 479 kts | 67° |
| 2026-04-16 06:54 | -3.26371 | 25.09283 | 36911 ft | 478 kts | 66° |
| 2026-04-16 06:54 | -3.23745 | 25.15403 | 36910 ft | 479 kts | 66° |
| 2026-04-16 06:55 | -3.21113 | 25.21527 | 36915 ft | 479 kts | 66° |
| 2026-04-16 06:55 | -3.18481 | 25.27647 | 36901 ft | 478 kts | 67° |
| 2026-04-16 06:56 | -3.15868 | 25.33728 | 36918 ft | 478 kts | 66° |
| 2026-04-16 06:56 | -3.13241 | 25.39843 | 36947 ft | 477 kts | 66° |
| 2026-04-16 06:57 | -3.10616 | 25.45949 | 36963 ft | 477 kts | 66° |
| 2026-04-16 06:57 | -3.07988 | 25.52059 | 36964 ft | 478 kts | 66° |
| 2026-04-16 06:58 | -3.05361 | 25.58165 | 36972 ft | 478 kts | 66° |
| 2026-04-16 06:58 | -3.02746 | 25.64250 | 36971 ft | 478 kts | 66° |
| 2026-04-16 06:59 | -3.00119 | 25.70360 | 36972 ft | 478 kts | 66° |
| 2026-04-16 06:59 | -2.97490 | 25.76463 | 36972 ft | 478 kts | 66° |
| 2026-04-16 07:00 | -2.94859 | 25.82579 | 36974 ft | 477 kts | 67° |
| 2026-04-16 07:01 | -2.90918 | 25.91731 | 36972 ft | 477 kts | 66° |
| 2026-04-16 07:01 | -2.88265 | 25.97812 | 36972 ft | 477 kts | 66° |
| 2026-04-16 07:02 | -2.85609 | 26.03884 | 36984 ft | 476 kts | 66° |